sensor_id;sensor_type;location;lat;lon;timestamp;temperature;humidity
78902;DHT22;70441;44.758;37.686;2024-01-25T00:00:58;4.29;77.67
78902;DHT22;70441;44.758;37.686;2024-01-25T00:02:00;4.29;77.71
78902;DHT22;70441;44.758;37.686;2024-01-25T00:03:02;4.32;77.68
78902;DHT22;70441;44.758;37.686;2024-01-25T00:04:03;4.32;77.74
78902;DHT22;70441;44.758;37.686;2024-01-25T00:05:05;4.36;77.74
78902;DHT22;70441;44.758;37.686;2024-01-25T00:06:07;4.37;77.71
78902;DHT22;70441;44.758;37.686;2024-01-25T00:07:09;4.38;77.71
78902;DHT22;70441;44.758;37.686;2024-01-25T00:08:11;4.41;77.64
78902;DHT22;70441;44.758;37.686;2024-01-25T00:09:12;4.43;77.52
78902;DHT22;70441;44.758;37.686;2024-01-25T00:10:16;4.45;77.58
78902;DHT22;70441;44.758;37.686;2024-01-25T00:11:18;4.45;77.72
78902;DHT22;70441;44.758;37.686;2024-01-25T00:12:20;4.45;77.68
78902;DHT22;70441;44.758;37.686;2024-01-25T00:13:22;4.51;77.81
78902;DHT22;70441;44.758;37.686;2024-01-25T00:14:24;4.51;77.89
78902;DHT22;70441;44.758;37.686;2024-01-25T00:15:26;4.55;77.80
78902;DHT22;70441;44.758;37.686;2024-01-25T00:16:27;4.54;77.87
78902;DHT22;70441;44.758;37.686;2024-01-25T00:17:29;4.55;77.97
78902;DHT22;70441;44.758;37.686;2024-01-25T00:18:31;4.62;77.82
78902;DHT22;70441;44.758;37.686;2024-01-25T00:19:34;4.64;77.80
78902;DHT22;70441;44.758;37.686;2024-01-25T00:20:37;4.65;77.71
78902;DHT22;70441;44.758;37.686;2024-01-25T00:21:42;4.65;77.69
78902;DHT22;70441;44.758;37.686;2024-01-25T00:22:44;4.69;77.54
78902;DHT22;70441;44.758;37.686;2024-01-25T00:23:46;4.71;77.50
78902;DHT22;70441;44.758;37.686;2024-01-25T00:24:49;4.73;77.49
78902;DHT22;70441;44.758;37.686;2024-01-25T00:25:51;4.78;77.35
78902;DHT22;70441;44.758;37.686;2024-01-25T00:26:53;4.79;77.25
78902;DHT22;70441;44.758;37.686;2024-01-25T00:27:54;4.80;77.19
78902;DHT22;70441;44.758;37.686;2024-01-25T00:28:56;4.85;77.07
78902;DHT22;70441;44.758;37.686;2024-01-25T00:29:57;4.85;76.93
78902;DHT22;70441;44.758;37.686;2024-01-25T00:30:59;4.85;76.80
78902;DHT22;70441;44.758;37.686;2024-01-25T00:32:01;4.89;76.63
78902;DHT22;70441;44.758;37.686;2024-01-25T00:33:02;4.86;76.59
78902;DHT22;70441;44.758;37.686;2024-01-25T00:34:04;4.89;76.48
78902;DHT22;70441;44.758;37.686;2024-01-25T00:35:07;4.90;76.30
78902;DHT22;70441;44.758;37.686;2024-01-25T00:36:11;4.93;76.10
78902;DHT22;70441;44.758;37.686;2024-01-25T00:37:13;4.93;76.16
78902;DHT22;70441;44.758;37.686;2024-01-25T00:38:15;4.93;76.12
78902;DHT22;70441;44.758;37.686;2024-01-25T00:39:17;4.97;75.97
78902;DHT22;70441;44.758;37.686;2024-01-25T00:40:19;4.99;75.78
78902;DHT22;70441;44.758;37.686;2024-01-25T00:41:21;5.00;75.74
78902;DHT22;70441;44.758;37.686;2024-01-25T00:42:23;5.03;75.62
78902;DHT22;70441;44.758;37.686;2024-01-25T00:43:25;5.04;75.62
78902;DHT22;70441;44.758;37.686;2024-01-25T00:44:27;5.00;75.53
78902;DHT22;70441;44.758;37.686;2024-01-25T00:45:30;5.01;75.48
78902;DHT22;70441;44.758;37.686;2024-01-25T00:46:32;5.03;75.35
78902;DHT22;70441;44.758;37.686;2024-01-25T00:47:36;5.07;74.96
78902;DHT22;70441;44.758;37.686;2024-01-25T00:48:39;5.10;74.68
78902;DHT22;70441;44.758;37.686;2024-01-25T00:49:44;5.13;74.39
78902;DHT22;70441;44.758;37.686;2024-01-25T00:50:47;5.13;74.38
78902;DHT22;70441;44.758;37.686;2024-01-25T00:51:50;5.14;74.38
78902;DHT22;70441;44.758;37.686;2024-01-25T00:52:55;5.14;74.41
78902;DHT22;70441;44.758;37.686;2024-01-25T00:53:57;5.17;74.43
78902;DHT22;70441;44.758;37.686;2024-01-25T00:54:59;5.16;74.44
78902;DHT22;70441;44.758;37.686;2024-01-25T00:56:01;5.16;74.54
78902;DHT22;70441;44.758;37.686;2024-01-25T00:57:03;5.20;74.66
78902;DHT22;70441;44.758;37.686;2024-01-25T00:58:05;5.19;74.66
78902;DHT22;70441;44.758;37.686;2024-01-25T00:59:08;5.21;74.65
78902;DHT22;70441;44.758;37.686;2024-01-25T01:00:10;5.24;74.58
78902;DHT22;70441;44.758;37.686;2024-01-25T01:01:12;5.26;74.60
78902;DHT22;70441;44.758;37.686;2024-01-25T01:02:14;5.23;74.62
78902;DHT22;70441;44.758;37.686;2024-01-25T01:03:18;5.23;74.53
78902;DHT22;70441;44.758;37.686;2024-01-25T01:04:20;5.23;74.57
78902;DHT22;70441;44.758;37.686;2024-01-25T01:05:22;5.26;74.52
78902;DHT22;70441;44.758;37.686;2024-01-25T01:06:25;5.26;74.36
78902;DHT22;70441;44.758;37.686;2024-01-25T01:07:26;5.24;73.89
78902;DHT22;70441;44.758;37.686;2024-01-25T01:08:28;5.28;73.67
78902;DHT22;70441;44.758;37.686;2024-01-25T01:09:30;5.26;73.50
78902;DHT22;70441;44.758;37.686;2024-01-25T01:10:32;5.27;73.14
78902;DHT22;70441;44.758;37.686;2024-01-25T01:11:33;5.27;72.65
78902;DHT22;70441;44.758;37.686;2024-01-25T01:12:36;5.27;72.45
78902;DHT22;70441;44.758;37.686;2024-01-25T01:13:38;5.28;72.29
78902;DHT22;70441;44.758;37.686;2024-01-25T01:14:39;5.30;72.32
78902;DHT22;70441;44.758;37.686;2024-01-25T01:15:41;5.27;71.94
78902;DHT22;70441;44.758;37.686;2024-01-25T01:16:43;5.27;71.96
78902;DHT22;70441;44.758;37.686;2024-01-25T01:17:44;5.26;71.92
78902;DHT22;70441;44.758;37.686;2024-01-25T01:18:46;5.30;71.90
78902;DHT22;70441;44.758;37.686;2024-01-25T01:19:49;5.31;71.76
78902;DHT22;70441;44.758;37.686;2024-01-25T01:20:51;5.28;71.60
78902;DHT22;70441;44.758;37.686;2024-01-25T01:21:52;5.27;71.37
78902;DHT22;70441;44.758;37.686;2024-01-25T01:22:54;5.31;71.18
78902;DHT22;70441;44.758;37.686;2024-01-25T01:23:56;5.32;71.08
78902;DHT22;70441;44.758;37.686;2024-01-25T01:24:57;5.31;71.06
78902;DHT22;70441;44.758;37.686;2024-01-25T01:25:59;5.34;70.96
78902;DHT22;70441;44.758;37.686;2024-01-25T01:27:01;5.34;70.73
78902;DHT22;70441;44.758;37.686;2024-01-25T01:28:02;5.37;70.69
78902;DHT22;70441;44.758;37.686;2024-01-25T01:29:04;5.37;70.62
78902;DHT22;70441;44.758;37.686;2024-01-25T01:30:07;5.34;70.50
78902;DHT22;70441;44.758;37.686;2024-01-25T01:31:09;5.38;70.51
78902;DHT22;70441;44.758;37.686;2024-01-25T01:32:11;5.38;70.53
78902;DHT22;70441;44.758;37.686;2024-01-25T01:33:14;5.39;70.51
78902;DHT22;70441;44.758;37.686;2024-01-25T01:34:16;5.39;70.49
78902;DHT22;70441;44.758;37.686;2024-01-25T01:35:19;5.41;70.44
78902;DHT22;70441;44.758;37.686;2024-01-25T01:36:20;5.41;70.41
78902;DHT22;70441;44.758;37.686;2024-01-25T01:37:22;5.41;70.42
78902;DHT22;70441;44.758;37.686;2024-01-25T01:38:24;5.45;70.35
78902;DHT22;70441;44.758;37.686;2024-01-25T01:39:25;5.42;70.57
78902;DHT22;70441;44.758;37.686;2024-01-25T01:40:27;5.45;70.94
78902;DHT22;70441;44.758;37.686;2024-01-25T01:41:29;5.45;71.17
78902;DHT22;70441;44.758;37.686;2024-01-25T01:42:31;5.44;71.36
78902;DHT22;70441;44.758;37.686;2024-01-25T01:43:34;5.44;71.43
78902;DHT22;70441;44.758;37.686;2024-01-25T01:44:35;5.45;71.54
78902;DHT22;70441;44.758;37.686;2024-01-25T01:45:37;5.44;71.68
78902;DHT22;70441;44.758;37.686;2024-01-25T01:46:39;5.47;71.73
78902;DHT22;70441;44.758;37.686;2024-01-25T01:47:44;5.48;71.75
78902;DHT22;70441;44.758;37.686;2024-01-25T01:48:46;5.49;71.73
78902;DHT22;70441;44.758;37.686;2024-01-25T01:49:48;5.48;71.83
78902;DHT22;70441;44.758;37.686;2024-01-25T01:50:51;5.48;71.89
78902;DHT22;70441;44.758;37.686;2024-01-25T01:51:53;5.48;71.93
78902;DHT22;70441;44.758;37.686;2024-01-25T01:52:55;5.52;71.74
78902;DHT22;70441;44.758;37.686;2024-01-25T01:53:57;5.52;71.54
78902;DHT22;70441;44.758;37.686;2024-01-25T01:54:59;5.49;71.32
78902;DHT22;70441;44.758;37.686;2024-01-25T01:56:00;5.51;71.35
78902;DHT22;70441;44.758;37.686;2024-01-25T01:57:02;5.49;71.24
78902;DHT22;70441;44.758;37.686;2024-01-25T01:58:04;5.54;71.22
78902;DHT22;70441;44.758;37.686;2024-01-25T01:59:09;5.54;71.05
78902;DHT22;70441;44.758;37.686;2024-01-25T02:00:12;5.51;70.99
78902;DHT22;70441;44.758;37.686;2024-01-25T02:01:15;5.52;70.94
78902;DHT22;70441;44.758;37.686;2024-01-25T02:02:17;5.56;70.84
78902;DHT22;70441;44.758;37.686;2024-01-25T02:03:19;5.56;71.05
78902;DHT22;70441;44.758;37.686;2024-01-25T02:04:20;5.59;71.12
78902;DHT22;70441;44.758;37.686;2024-01-25T02:05:22;5.56;71.13
78902;DHT22;70441;44.758;37.686;2024-01-25T02:06:32;5.56;71.29
78902;DHT22;70441;44.758;37.686;2024-01-25T02:07:34;5.60;71.45
78902;DHT22;70441;44.758;37.686;2024-01-25T02:08:36;5.58;71.51
78902;DHT22;70441;44.758;37.686;2024-01-25T02:09:38;5.59;71.57
78902;DHT22;70441;44.758;37.686;2024-01-25T02:10:39;5.59;71.65
78902;DHT22;70441;44.758;37.686;2024-01-25T02:11:41;5.59;71.66
78902;DHT22;70441;44.758;37.686;2024-01-25T02:12:42;5.60;71.66
78902;DHT22;70441;44.758;37.686;2024-01-25T02:13:44;5.60;71.70
78902;DHT22;70441;44.758;37.686;2024-01-25T02:14:45;5.62;71.75
78902;DHT22;70441;44.758;37.686;2024-01-25T02:15:47;5.63;71.79
78902;DHT22;70441;44.758;37.686;2024-01-25T02:16:48;5.62;71.85
78902;DHT22;70441;44.758;37.686;2024-01-25T02:17:50;5.60;71.88
78902;DHT22;70441;44.758;37.686;2024-01-25T02:18:51;5.60;71.92
78902;DHT22;70441;44.758;37.686;2024-01-25T02:19:55;5.60;72.01
78902;DHT22;70441;44.758;37.686;2024-01-25T02:20:56;5.62;72.10
78902;DHT22;70441;44.758;37.686;2024-01-25T02:21:58;5.62;72.18
78902;DHT22;70441;44.758;37.686;2024-01-25T02:23:00;5.60;72.26
78902;DHT22;70441;44.758;37.686;2024-01-25T02:24:02;5.62;72.16
78902;DHT22;70441;44.758;37.686;2024-01-25T02:25:04;5.65;71.94
78902;DHT22;70441;44.758;37.686;2024-01-25T02:26:06;5.63;71.83
78902;DHT22;70441;44.758;37.686;2024-01-25T02:27:07;5.63;71.85
78902;DHT22;70441;44.758;37.686;2024-01-25T02:28:09;5.63;71.84
78902;DHT22;70441;44.758;37.686;2024-01-25T02:29:10;5.60;71.87
78902;DHT22;70441;44.758;37.686;2024-01-25T02:30:12;5.65;71.87
78902;DHT22;70441;44.758;37.686;2024-01-25T02:31:13;5.65;71.94
78902;DHT22;70441;44.758;37.686;2024-01-25T02:32:14;5.62;71.95
78902;DHT22;70441;44.758;37.686;2024-01-25T02:33:16;5.63;72.18
78902;DHT22;70441;44.758;37.686;2024-01-25T02:34:17;5.62;72.24
78902;DHT22;70441;44.758;37.686;2024-01-25T02:35:19;5.58;72.34
78902;DHT22;70441;44.758;37.686;2024-01-25T02:36:22;5.60;72.41
78902;DHT22;70441;44.758;37.686;2024-01-25T02:37:24;5.59;72.54
78902;DHT22;70441;44.758;37.686;2024-01-25T02:38:25;5.59;72.69
78902;DHT22;70441;44.758;37.686;2024-01-25T02:39:27;5.59;72.80
78902;DHT22;70441;44.758;37.686;2024-01-25T02:40:28;5.60;72.86
78902;DHT22;70441;44.758;37.686;2024-01-25T02:41:31;5.58;72.74
78902;DHT22;70441;44.758;37.686;2024-01-25T02:42:33;5.60;72.67
78902;DHT22;70441;44.758;37.686;2024-01-25T02:43:34;5.59;72.46
78902;DHT22;70441;44.758;37.686;2024-01-25T02:44:37;5.62;72.38
78902;DHT22;70441;44.758;37.686;2024-01-25T02:46:01;5.60;72.38
78902;DHT22;70441;44.758;37.686;2024-01-25T02:47:03;5.60;72.36
78902;DHT22;70441;44.758;37.686;2024-01-25T02:48:05;5.59;72.32
78902;DHT22;70441;44.758;37.686;2024-01-25T02:49:06;5.62;72.35
78902;DHT22;70441;44.758;37.686;2024-01-25T02:50:09;5.60;72.25
78902;DHT22;70441;44.758;37.686;2024-01-25T02:51:10;5.60;72.31
78902;DHT22;70441;44.758;37.686;2024-01-25T02:52:12;5.59;72.36
78902;DHT22;70441;44.758;37.686;2024-01-25T02:53:14;5.62;72.23
78902;DHT22;70441;44.758;37.686;2024-01-25T02:54:15;5.63;72.29
78902;DHT22;70441;44.758;37.686;2024-01-25T02:55:20;5.65;72.06
78902;DHT22;70441;44.758;37.686;2024-01-25T02:56:22;5.66;72.01
78902;DHT22;70441;44.758;37.686;2024-01-25T02:57:25;5.63;72.01
78902;DHT22;70441;44.758;37.686;2024-01-25T02:58:27;5.67;72.02
78902;DHT22;70441;44.758;37.686;2024-01-25T02:59:28;5.66;71.99
78902;DHT22;70441;44.758;37.686;2024-01-25T03:00:30;5.65;71.94
78902;DHT22;70441;44.758;37.686;2024-01-25T03:01:40;5.66;71.78
78902;DHT22;70441;44.758;37.686;2024-01-25T03:02:42;5.65;71.66
78902;DHT22;70441;44.758;37.686;2024-01-25T03:03:44;5.66;71.52
78902;DHT22;70441;44.758;37.686;2024-01-25T03:04:46;5.65;71.47
78902;DHT22;70441;44.758;37.686;2024-01-25T03:05:48;5.65;71.48
78902;DHT22;70441;44.758;37.686;2024-01-25T03:06:49;5.65;71.51
78902;DHT22;70441;44.758;37.686;2024-01-25T03:07:51;5.67;71.57
78902;DHT22;70441;44.758;37.686;2024-01-25T03:08:53;5.67;71.56
78902;DHT22;70441;44.758;37.686;2024-01-25T03:09:55;5.65;71.53
78902;DHT22;70441;44.758;37.686;2024-01-25T03:10:59;5.69;71.54
78902;DHT22;70441;44.758;37.686;2024-01-25T03:12:01;5.67;71.56
78902;DHT22;70441;44.758;37.686;2024-01-25T03:13:03;5.69;71.49
78902;DHT22;70441;44.758;37.686;2024-01-25T03:14:05;5.70;71.51
78902;DHT22;70441;44.758;37.686;2024-01-25T03:15:07;5.72;71.50
78902;DHT22;70441;44.758;37.686;2024-01-25T03:16:09;5.70;71.41
78902;DHT22;70441;44.758;37.686;2024-01-25T03:17:10;5.69;71.47
78902;DHT22;70441;44.758;37.686;2024-01-25T03:18:13;5.70;71.47
78902;DHT22;70441;44.758;37.686;2024-01-25T03:19:15;5.70;71.35
78902;DHT22;70441;44.758;37.686;2024-01-25T03:20:17;5.70;71.35
78902;DHT22;70441;44.758;37.686;2024-01-25T03:21:18;5.72;71.39
78902;DHT22;70441;44.758;37.686;2024-01-25T03:22:20;5.69;71.45
78902;DHT22;70441;44.758;37.686;2024-01-25T03:23:23;5.70;71.35
78902;DHT22;70441;44.758;37.686;2024-01-25T03:24:25;5.69;71.08
78902;DHT22;70441;44.758;37.686;2024-01-25T03:25:26;5.73;70.99
78902;DHT22;70441;44.758;37.686;2024-01-25T03:26:28;5.72;70.98
78902;DHT22;70441;44.758;37.686;2024-01-25T03:27:30;5.73;71.00
78902;DHT22;70441;44.758;37.686;2024-01-25T03:28:33;5.76;71.03
78902;DHT22;70441;44.758;37.686;2024-01-25T03:29:41;5.73;70.96
78902;DHT22;70441;44.758;37.686;2024-01-25T03:30:44;5.74;70.90
78902;DHT22;70441;44.758;37.686;2024-01-25T03:31:49;5.73;70.90
78902;DHT22;70441;44.758;37.686;2024-01-25T03:32:52;5.74;70.92
78902;DHT22;70441;44.758;37.686;2024-01-25T03:33:54;5.77;70.97
78902;DHT22;70441;44.758;37.686;2024-01-25T03:34:55;5.79;70.99
78902;DHT22;70441;44.758;37.686;2024-01-25T03:36:05;5.79;70.98
78902;DHT22;70441;44.758;37.686;2024-01-25T03:37:07;5.79;71.01
78902;DHT22;70441;44.758;37.686;2024-01-25T03:38:09;5.80;71.09
78902;DHT22;70441;44.758;37.686;2024-01-25T03:39:11;5.79;71.06
78902;DHT22;70441;44.758;37.686;2024-01-25T03:40:13;5.80;70.95
78902;DHT22;70441;44.758;37.686;2024-01-25T03:41:14;5.80;71.03
78902;DHT22;70441;44.758;37.686;2024-01-25T03:42:17;5.80;70.95
78902;DHT22;70441;44.758;37.686;2024-01-25T03:43:19;5.80;70.93
78902;DHT22;70441;44.758;37.686;2024-01-25T03:44:20;5.81;70.88
78902;DHT22;70441;44.758;37.686;2024-01-25T03:45:22;5.81;70.83
78902;DHT22;70441;44.758;37.686;2024-01-25T03:46:23;5.83;70.83
78902;DHT22;70441;44.758;37.686;2024-01-25T03:47:25;5.86;70.93
78902;DHT22;70441;44.758;37.686;2024-01-25T03:48:27;5.85;70.94
78902;DHT22;70441;44.758;37.686;2024-01-25T03:49:28;5.86;71.00
78902;DHT22;70441;44.758;37.686;2024-01-25T03:50:30;5.85;71.00
78902;DHT22;70441;44.758;37.686;2024-01-25T03:51:32;5.83;71.05
78902;DHT22;70441;44.758;37.686;2024-01-25T03:52:33;5.80;70.84
78902;DHT22;70441;44.758;37.686;2024-01-25T03:53:35;5.83;70.64
78902;DHT22;70441;44.758;37.686;2024-01-25T03:54:36;5.79;70.62
78902;DHT22;70441;44.758;37.686;2024-01-25T03:55:38;5.79;70.60
78902;DHT22;70441;44.758;37.686;2024-01-25T03:56:40;5.80;70.54
78902;DHT22;70441;44.758;37.686;2024-01-25T03:57:41;5.80;70.57
78902;DHT22;70441;44.758;37.686;2024-01-25T03:58:44;5.79;70.56
78902;DHT22;70441;44.758;37.686;2024-01-25T03:59:45;5.81;70.51
78902;DHT22;70441;44.758;37.686;2024-01-25T04:00:47;5.80;70.56
78902;DHT22;70441;44.758;37.686;2024-01-25T04:01:48;5.83;70.50
78902;DHT22;70441;44.758;37.686;2024-01-25T04:02:51;5.80;70.59
78902;DHT22;70441;44.758;37.686;2024-01-25T04:03:52;5.80;70.62
78902;DHT22;70441;44.758;37.686;2024-01-25T04:04:54;5.85;70.71
78902;DHT22;70441;44.758;37.686;2024-01-25T04:05:55;5.81;70.80
78902;DHT22;70441;44.758;37.686;2024-01-25T04:06:56;5.81;70.70
78902;DHT22;70441;44.758;37.686;2024-01-25T04:07:58;5.80;70.63
78902;DHT22;70441;44.758;37.686;2024-01-25T04:09:00;5.80;70.49
78902;DHT22;70441;44.758;37.686;2024-01-25T04:10:01;5.80;70.19
78902;DHT22;70441;44.758;37.686;2024-01-25T04:11:03;5.80;70.29
78902;DHT22;70441;44.758;37.686;2024-01-25T04:12:05;5.80;70.34
78902;DHT22;70441;44.758;37.686;2024-01-25T04:13:06;5.80;70.45
78902;DHT22;70441;44.758;37.686;2024-01-25T04:14:08;5.81;70.52
78902;DHT22;70441;44.758;37.686;2024-01-25T04:15:11;5.79;70.50
78902;DHT22;70441;44.758;37.686;2024-01-25T04:16:16;5.80;70.51
78902;DHT22;70441;44.758;37.686;2024-01-25T04:17:17;5.83;70.46
78902;DHT22;70441;44.758;37.686;2024-01-25T04:18:19;5.81;70.46
78902;DHT22;70441;44.758;37.686;2024-01-25T04:19:20;5.83;70.50
78902;DHT22;70441;44.758;37.686;2024-01-25T04:20:23;5.83;70.51
78902;DHT22;70441;44.758;37.686;2024-01-25T04:21:24;5.86;70.54
78902;DHT22;70441;44.758;37.686;2024-01-25T04:22:25;5.83;70.57
78902;DHT22;70441;44.758;37.686;2024-01-25T04:23:29;5.83;70.66
78902;DHT22;70441;44.758;37.686;2024-01-25T04:24:30;5.83;70.62
78902;DHT22;70441;44.758;37.686;2024-01-25T04:25:32;5.83;70.62
78902;DHT22;70441;44.758;37.686;2024-01-25T04:26:33;5.81;70.40
78902;DHT22;70441;44.758;37.686;2024-01-25T04:27:37;5.81;70.35
78902;DHT22;70441;44.758;37.686;2024-01-25T04:28:39;5.80;70.33
78902;DHT22;70441;44.758;37.686;2024-01-25T04:29:41;5.77;70.19
78902;DHT22;70441;44.758;37.686;2024-01-25T04:30:45;5.74;70.25
78902;DHT22;70441;44.758;37.686;2024-01-25T04:31:47;5.76;70.15
78902;DHT22;70441;44.758;37.686;2024-01-25T04:32:49;5.76;70.15
78902;DHT22;70441;44.758;37.686;2024-01-25T04:33:50;5.74;70.19
78902;DHT22;70441;44.758;37.686;2024-01-25T04:34:52;5.74;70.18
78902;DHT22;70441;44.758;37.686;2024-01-25T04:35:54;5.70;70.16
78902;DHT22;70441;44.758;37.686;2024-01-25T04:36:55;5.70;70.25
78902;DHT22;70441;44.758;37.686;2024-01-25T04:37:56;5.70;70.42
78902;DHT22;70441;44.758;37.686;2024-01-25T04:38:58;5.72;70.51
78902;DHT22;70441;44.758;37.686;2024-01-25T04:39:59;5.69;70.54
78902;DHT22;70441;44.758;37.686;2024-01-25T04:41:03;5.67;70.62
78902;DHT22;70441;44.758;37.686;2024-01-25T04:42:04;5.69;70.65
78902;DHT22;70441;44.758;37.686;2024-01-25T04:43:06;5.67;70.68
78902;DHT22;70441;44.758;37.686;2024-01-25T04:44:08;5.67;70.70
78902;DHT22;70441;44.758;37.686;2024-01-25T04:45:09;5.65;70.89
78902;DHT22;70441;44.758;37.686;2024-01-25T04:46:11;5.63;71.02
78902;DHT22;70441;44.758;37.686;2024-01-25T04:47:13;5.63;71.08
78902;DHT22;70441;44.758;37.686;2024-01-25T04:48:15;5.63;71.14
78902;DHT22;70441;44.758;37.686;2024-01-25T04:49:17;5.65;71.13
78902;DHT22;70441;44.758;37.686;2024-01-25T04:50:18;5.65;71.22
78902;DHT22;70441;44.758;37.686;2024-01-25T04:51:20;5.60;71.23
78902;DHT22;70441;44.758;37.686;2024-01-25T04:52:22;5.62;71.24
78902;DHT22;70441;44.758;37.686;2024-01-25T04:53:25;5.59;71.29
78902;DHT22;70441;44.758;37.686;2024-01-25T04:54:27;5.60;71.53
78902;DHT22;70441;44.758;37.686;2024-01-25T04:55:29;5.59;71.62
78902;DHT22;70441;44.758;37.686;2024-01-25T04:56:30;5.60;71.69
78902;DHT22;70441;44.758;37.686;2024-01-25T04:57:32;5.62;71.74
78902;DHT22;70441;44.758;37.686;2024-01-25T04:58:33;5.59;71.67
78902;DHT22;70441;44.758;37.686;2024-01-25T04:59:36;5.60;71.64
78902;DHT22;70441;44.758;37.686;2024-01-25T05:00:37;5.59;71.67
78902;DHT22;70441;44.758;37.686;2024-01-25T05:01:41;5.60;71.65
78902;DHT22;70441;44.758;37.686;2024-01-25T05:02:42;5.56;71.55
78902;DHT22;70441;44.758;37.686;2024-01-25T05:03:44;5.60;71.50
78902;DHT22;70441;44.758;37.686;2024-01-25T05:04:46;5.60;71.48
78902;DHT22;70441;44.758;37.686;2024-01-25T05:05:49;5.58;71.48
78902;DHT22;70441;44.758;37.686;2024-01-25T05:06:50;5.58;71.36
78902;DHT22;70441;44.758;37.686;2024-01-25T05:07:52;5.60;71.24
78902;DHT22;70441;44.758;37.686;2024-01-25T05:08:54;5.63;71.23
78902;DHT22;70441;44.758;37.686;2024-01-25T05:09:55;5.60;71.28
78902;DHT22;70441;44.758;37.686;2024-01-25T05:10:57;5.59;71.31
78902;DHT22;70441;44.758;37.686;2024-01-25T05:11:58;5.59;71.39
78902;DHT22;70441;44.758;37.686;2024-01-25T05:13:03;5.58;71.44
78902;DHT22;70441;44.758;37.686;2024-01-25T05:14:05;5.62;71.50
78902;DHT22;70441;44.758;37.686;2024-01-25T05:15:08;5.62;71.60
78902;DHT22;70441;44.758;37.686;2024-01-25T05:16:09;5.62;71.73
78902;DHT22;70441;44.758;37.686;2024-01-25T05:17:11;5.62;71.79
78902;DHT22;70441;44.758;37.686;2024-01-25T05:18:12;5.62;71.67
78902;DHT22;70441;44.758;37.686;2024-01-25T05:19:14;5.63;71.58
78902;DHT22;70441;44.758;37.686;2024-01-25T05:20:16;5.65;71.58
78902;DHT22;70441;44.758;37.686;2024-01-25T05:21:19;5.65;71.62
78902;DHT22;70441;44.758;37.686;2024-01-25T05:22:20;5.63;71.59
78902;DHT22;70441;44.758;37.686;2024-01-25T05:23:23;5.65;71.54
78902;DHT22;70441;44.758;37.686;2024-01-25T05:24:24;5.66;71.51
78902;DHT22;70441;44.758;37.686;2024-01-25T05:25:27;5.67;71.46
78902;DHT22;70441;44.758;37.686;2024-01-25T05:26:30;5.67;71.38
78902;DHT22;70441;44.758;37.686;2024-01-25T05:27:31;5.66;71.49
78902;DHT22;70441;44.758;37.686;2024-01-25T05:28:35;5.66;71.41
78902;DHT22;70441;44.758;37.686;2024-01-25T05:29:37;5.67;71.48
78902;DHT22;70441;44.758;37.686;2024-01-25T05:30:40;5.69;71.50
78902;DHT22;70441;44.758;37.686;2024-01-25T05:31:42;5.70;71.73
78902;DHT22;70441;44.758;37.686;2024-01-25T05:32:43;5.73;72.03
78902;DHT22;70441;44.758;37.686;2024-01-25T05:33:47;5.74;72.22
78902;DHT22;70441;44.758;37.686;2024-01-25T05:34:48;5.76;72.41
78902;DHT22;70441;44.758;37.686;2024-01-25T05:35:50;5.76;72.47
78902;DHT22;70441;44.758;37.686;2024-01-25T05:36:51;5.77;72.56
78902;DHT22;70441;44.758;37.686;2024-01-25T05:37:53;5.77;72.75
78902;DHT22;70441;44.758;37.686;2024-01-25T05:38:55;5.79;72.82
78902;DHT22;70441;44.758;37.686;2024-01-25T05:39:56;5.83;72.88
78902;DHT22;70441;44.758;37.686;2024-01-25T05:40:58;5.81;72.81
78902;DHT22;70441;44.758;37.686;2024-01-25T05:42:00;5.83;72.76
78902;DHT22;70441;44.758;37.686;2024-01-25T05:43:02;5.83;72.70
78902;DHT22;70441;44.758;37.686;2024-01-25T05:44:04;5.85;72.54
78902;DHT22;70441;44.758;37.686;2024-01-25T05:45:06;5.86;72.42
78902;DHT22;70441;44.758;37.686;2024-01-25T05:46:08;5.86;72.34
78902;DHT22;70441;44.758;37.686;2024-01-25T05:47:10;5.87;72.30
78902;DHT22;70441;44.758;37.686;2024-01-25T05:48:12;5.87;72.32
78902;DHT22;70441;44.758;37.686;2024-01-25T05:49:13;5.90;72.25
78902;DHT22;70441;44.758;37.686;2024-01-25T05:50:15;5.90;72.06
78902;DHT22;70441;44.758;37.686;2024-01-25T05:51:17;5.96;71.79
78902;DHT22;70441;44.758;37.686;2024-01-25T05:52:18;5.96;71.83
78902;DHT22;70441;44.758;37.686;2024-01-25T05:53:22;5.98;71.81
78902;DHT22;70441;44.758;37.686;2024-01-25T05:54:23;5.98;71.66
78902;DHT22;70441;44.758;37.686;2024-01-25T05:55:25;6.03;71.54
78902;DHT22;70441;44.758;37.686;2024-01-25T05:56:26;6.03;71.55
78902;DHT22;70441;44.758;37.686;2024-01-25T05:57:27;6.05;71.56
78902;DHT22;70441;44.758;37.686;2024-01-25T05:58:29;6.10;71.50
78902;DHT22;70441;44.758;37.686;2024-01-25T05:59:31;6.10;71.48
78902;DHT22;70441;44.758;37.686;2024-01-25T06:00:32;6.13;71.39
78902;DHT22;70441;44.758;37.686;2024-01-25T06:01:34;6.13;71.32
78902;DHT22;70441;44.758;37.686;2024-01-25T06:02:35;6.14;71.30
78902;DHT22;70441;44.758;37.686;2024-01-25T06:03:37;6.18;71.06
78902;DHT22;70441;44.758;37.686;2024-01-25T06:04:39;6.21;70.91
78902;DHT22;70441;44.758;37.686;2024-01-25T06:05:41;6.22;70.92
78902;DHT22;70441;44.758;37.686;2024-01-25T06:06:42;6.24;70.89
78902;DHT22;70441;44.758;37.686;2024-01-25T06:07:45;6.28;70.92
78902;DHT22;70441;44.758;37.686;2024-01-25T06:08:46;6.26;70.91
78902;DHT22;70441;44.758;37.686;2024-01-25T06:09:48;6.31;70.97
78902;DHT22;70441;44.758;37.686;2024-01-25T06:10:49;6.29;71.01
78902;DHT22;70441;44.758;37.686;2024-01-25T06:11:51;6.33;70.97
78902;DHT22;70441;44.758;37.686;2024-01-25T06:12:52;6.36;70.96
78902;DHT22;70441;44.758;37.686;2024-01-25T06:13:54;6.39;70.96
78902;DHT22;70441;44.758;37.686;2024-01-25T06:14:55;6.39;70.98
78902;DHT22;70441;44.758;37.686;2024-01-25T06:15:57;6.40;70.66
78902;DHT22;70441;44.758;37.686;2024-01-25T06:16:59;6.45;70.51
78902;DHT22;70441;44.758;37.686;2024-01-25T06:18:00;6.46;70.52
78902;DHT22;70441;44.758;37.686;2024-01-25T06:19:03;6.48;70.66
78902;DHT22;70441;44.758;37.686;2024-01-25T06:20:04;6.50;70.61
78902;DHT22;70441;44.758;37.686;2024-01-25T06:21:06;6.52;70.50
78902;DHT22;70441;44.758;37.686;2024-01-25T06:22:09;6.49;70.59
78902;DHT22;70441;44.758;37.686;2024-01-25T06:23:10;6.53;70.55
78902;DHT22;70441;44.758;37.686;2024-01-25T06:24:12;6.53;70.72
78902;DHT22;70441;44.758;37.686;2024-01-25T06:25:13;6.54;70.80
78902;DHT22;70441;44.758;37.686;2024-01-25T06:26:15;6.53;70.68
78902;DHT22;70441;44.758;37.686;2024-01-25T06:27:16;6.56;70.47
78902;DHT22;70441;44.758;37.686;2024-01-25T06:28:18;6.59;70.48
78902;DHT22;70441;44.758;37.686;2024-01-25T06:29:22;6.60;70.17
78902;DHT22;70441;44.758;37.686;2024-01-25T06:30:24;6.63;70.12
78902;DHT22;70441;44.758;37.686;2024-01-25T06:31:26;6.60;70.13
78902;DHT22;70441;44.758;37.686;2024-01-25T06:32:27;6.60;70.21